Time;durP1;ratioP1;P1;durP2;ratioP2;P2;SDS_P1;SDS_P2;PMS_P1;PMS_P2;Temp;Humidity;BMP_temperature;BMP_pressure;BME280_temperature;BME280_humidity;BME280_pressure;Samples;Min_cycle;Max_cycle;Signal;HPM_P1;HPM_P2
2022/01/02 00:00:03;;;;;;;3.67;1.90;;;;;;;;;;10326879;28;20580;-85
2022/01/02 00:05:07;;;;;;;2.17;1.67;;;;;;;;;;10343448;28;20408;-85
2022/01/02 00:10:10;;;;;;;4.13;2.10;;;;;;;;;;10337734;28;20045;-86
2022/01/02 00:15:17;;;;;;;2.50;1.80;;;;;;;;;;10343442;28;20034;-85
2022/01/02 00:20:31;;;;;;;1.95;1.70;;;;;;;;;;10343222;28;20050;-86
2022/01/02 00:25:37;;;;;;;3.08;1.98;;;;;;;;;;10325761;28;20041;-85
2022/01/02 00:30:39;;;;;;;2.83;2.10;;;;;;;;;;10324226;28;20415;-85
2022/01/02 00:35:40;;;;;;;2.63;1.80;;;;;;;;;;10325233;28;20042;-85
2022/01/02 00:40:44;;;;;;;2.70;1.80;;;;;;;;;;10342048;28;20400;-85
2022/01/02 00:45:46;;;;;;;3.10;2.08;;;;;;;;;;10324053;28;20038;-85
2022/01/02 00:50:52;;;;;;;2.30;1.65;;;;;;;;;;10324252;28;20496;-85
2022/01/02 00:55:56;;;;;;;3.38;2.33;;;;;;;;;;10323987;28;20463;-85
2022/01/02 01:01:00;;;;;;;2.90;2.00;;;;;;;;;;10324549;28;20050;-86
2022/01/02 01:06:04;;;;;;;3.10;2.05;;;;;;;;;;10322678;28;20094;-86
2022/01/02 01:11:09;;;;;;;2.60;1.67;;;;;;;;;;10322456;28;20565;-85
2022/01/02 01:16:10;;;;;;;2.90;1.85;;;;;;;;;;10321738;28;20452;-85
2022/01/02 01:21:13;;;;;;;4.03;2.05;;;;;;;;;;10325156;28;20034;-86
2022/01/02 01:26:31;;;;;;;4.25;2.30;;;;;;;;;;10322203;28;20039;-86
2022/01/02 01:31:32;;;;;;;3.58;1.63;;;;;;;;;;10322538;28;20035;-86
2022/01/02 01:36:35;;;;;;;2.72;1.90;;;;;;;;;;10342056;28;20081;-86
2022/01/02 01:41:43;;;;;;;3.30;1.90;;;;;;;;;;10311198;28;20042;-85
2022/01/02 01:46:45;;;;;;;3.80;1.95;;;;;;;;;;10318553;28;20345;-86
2022/01/02 01:51:59;;;;;;;2.35;1.80;;;;;;;;;;10319478;28;20031;-84
2022/01/02 01:57:02;;;;;;;3.50;1.73;;;;;;;;;;10322494;28;20070;-84
2022/01/02 02:02:04;;;;;;;3.75;1.90;;;;;;;;;;10325289;28;20062;-83
2022/01/02 02:07:05;;;;;;;2.63;1.45;;;;;;;;;;10342823;28;20049;-84
2022/01/02 02:12:07;;;;;;;4.43;2.00;;;;;;;;;;10325852;28;20050;-84
2022/01/02 02:17:12;;;;;;;2.20;1.80;;;;;;;;;;10324623;28;20030;-85
2022/01/02 02:22:23;;;;;;;2.35;1.70;;;;;;;;;;10341825;28;20117;-85
2022/01/02 02:27:53;;;;;;;3.33;1.80;;;;;;;;;;10308254;28;20056;-85
2022/01/02 02:32:55;;;;;;;2.38;1.58;;;;;;;;;;10301243;28;20472;-85
2022/01/02 02:37:56;;;;;;;3.75;2.05;;;;;;;;;;10310818;28;20049;-86
2022/01/02 02:43:03;;;;;;;3.10;1.77;;;;;;;;;;10348084;28;20043;-84
2022/01/02 02:53:47;;;;;;;4.40;1.75;;;;;;;;;;10355000;28;20030;-84
2022/01/02 02:58:50;;;;;;;4.20;1.90;;;;;;;;;;10355011;28;20162;-84
2022/01/02 03:03:52;;;;;;;3.88;2.20;;;;;;;;;;10319858;28;20038;-84
2022/01/02 03:09:05;;;;;;;4.60;2.10;;;;;;;;;;10352134;28;20484;-84
2022/01/02 03:14:10;;;;;;;2.60;1.80;;;;;;;;;;10347245;28;20034;-84
2022/01/02 03:19:15;;;;;;;2.47;1.45;;;;;;;;;;10332696;28;20046;-85
2022/01/02 03:24:16;;;;;;;2.72;1.65;;;;;;;;;;10330029;28;20054;-84
2022/01/02 03:29:17;;;;;;;2.45;1.40;;;;;;;;;;10328857;28;20038;-84
2022/01/02 03:34:18;;;;;;;2.10;1.70;;;;;;;;;;10330675;28;20070;-84
2022/01/02 03:39:25;;;;;;;2.13;1.50;;;;;;;;;;10333657;28;20050;-85
2022/01/02 03:44:30;;;;;;;2.67;1.50;;;;;;;;;;10333924;28;20515;-85
2022/01/02 03:49:32;;;;;;;3.45;1.77;;;;;;;;;;10335993;28;20107;-86
2022/01/02 03:54:48;;;;;;;3.15;1.73;;;;;;;;;;10316711;28;20408;-86
2022/01/02 03:59:49;;;;;;;3.00;1.83;;;;;;;;;;10331395;28;20040;-87
2022/01/02 04:05:19;;;;;;;2.60;1.70;;;;;;;;;;10341825;28;20516;-87
2022/01/02 04:10:21;;;;;;;3.05;1.55;;;;;;;;;;10320833;28;20102;-86
2022/01/02 04:15:31;;;;;;;2.22;1.60;;;;;;;;;;10319717;28;20121;-86
2022/01/02 04:20:35;;;;;;;2.27;1.60;;;;;;;;;;10321765;28;20035;-86
2022/01/02 04:25:39;;;;;;;4.72;2.22;;;;;;;;;;10321199;28;20541;-85
2022/01/02 04:31:00;;;;;;;4.07;1.70;;;;;;;;;;10337304;28;20046;-86
2022/01/02 04:36:24;;;;;;;4.10;2.03;;;;;;;;;;10340898;28;21163;-86
2022/01/02 04:41:27;;;;;;;3.38;1.70;;;;;;;;;;10320548;28;20057;-86
2022/01/02 04:46:32;;;;;;;4.40;1.95;;;;;;;;;;10338477;28;20480;-86
2022/01/02 04:51:34;;;;;;;4.03;2.00;;;;;;;;;;10432543;28;20127;-86
2022/01/02 04:56:46;;;;;;;4.47;2.20;;;;;;;;;;10531834;28;20054;-86
2022/01/02 05:02:11;;;;;;;6.38;2.78;;;;;;;;;;10532049;28;20036;-86
2022/01/02 05:07:18;;;;;;;5.32;2.40;;;;;;;;;;10397279;28;20034;-86
2022/01/02 05:12:31;;;;;;;5.65;1.92;;;;;;;;;;10404841;28;20031;-86
2022/01/02 05:17:32;;;;;;;3.47;1.75;;;;;;;;;;10403633;28;20373;-87
2022/01/02 05:22:37;;;;;;;7.68;2.40;;;;;;;;;;10404365;28;20038;-86
2022/01/02 05:27:41;;;;;;;3.97;2.13;;;;;;;;;;10403688;28;20223;-86
2022/01/02 05:32:45;;;;;;;4.68;2.35;;;;;;;;;;10444883;28;20053;-86
2022/01/02 05:37:50;;;;;;;3.80;1.75;;;;;;;;;;10429033;28;20026;-85
2022/01/02 05:42:52;;;;;;;5.25;2.20;;;;;;;;;;10411229;28;20488;-86
2022/01/02 05:48:15;;;;;;;5.22;2.60;;;;;;;;;;10511197;28;20040;-86
2022/01/02 05:53:44;;;;;;;5.15;1.83;;;;;;;;;;10448879;23;20114;-80
2022/01/02 06:50:24;;;;;;;3.03;1.70;;;;;;;;;;10393352;28;20038;-82
2022/01/02 07:02:26;;;;;;;3.42;1.60;;;;;;;;;;10477405;28;20029;-81
2022/01/02 07:42:07;;;;;;;5.18;2.20;;;;;;;;;;10410487;28;20029;-81
2022/01/02 08:27:14;;;;;;;7.93;3.45;;;;;;;;;;10405304;28;20034;-83
2022/01/02 08:32:15;;;;;;;;;;;;;;;;;;10377118;28;20080;-83
2022/01/02 08:37:16;;;;;;;6.95;2.85;;;;;;;;;;10376245;28;19959;-82
2022/01/02 08:42:17;;;;;;;;;;;;;;;;;;10378456;28;20064;-83
2022/01/02 08:47:18;;;;;;;6.75;2.80;;;;;;;;;;10377553;28;19985;-83
2022/01/02 08:52:19;;;;;;;;;;;;;;;;;;10378877;28;20049;-83
2022/01/02 08:57:20;;;;;;;5.57;2.65;;;;;;;;;;10383131;28;19911;-83
2022/01/02 09:02:21;;;;;;;6.47;2.45;;;;;;;;;;10398637;28;20057;-83
2022/01/02 09:07:22;;;;;;;;;;;;;;;;;;10378108;28;20109;-82
2022/01/02 09:12:23;;;;;;;3.53;1.90;;;;;;;;;;10371099;28;19913;-82
2022/01/02 09:17:25;;;;;;;;;;;;;;;;;;10371474;28;20060;-82
2022/01/02 09:22:26;;;;;;;;;;;;;;;;;;10390258;28;19905;-82
2022/01/02 09:27:27;;;;;;;4.22;2.08;;;;;;;;;;10371793;28;20343;-84
2022/01/02 09:32:28;;;;;;;4.25;2.25;;;;;;;;;;10374279;28;20212;-82
2022/01/02 09:37:29;;;;;;;4.97;2.58;;;;;;;;;;10378538;28;20080;-82
2022/01/02 09:42:30;;;;;;;;;;;;;;;;;;10369504;28;20475;-82
2022/01/02 09:47:32;;;;;;;4.03;2.28;;;;;;;;;;10368740;28;19909;-82
2022/01/02 09:52:33;;;;;;;4.32;1.80;;;;;;;;;;10368883;28;20038;-83
2022/01/02 09:57:34;;;;;;;4.30;2.20;;;;;;;;;;10364573;28;20054;-83
2022/01/02 10:02:35;;;;;;;;;;;;;;;;;;10363504;28;20059;-82
2022/01/02 10:07:36;;;;;;;3.05;2.20;;;;;;;;;;10364863;28;19916;-83
2022/01/02 10:12:37;;;;;;;;;;;;;;;;;;10367176;28;20062;-82
2022/01/02 10:17:38;;;;;;;;;;;;;;;;;;10375887;28;20266;-82
2022/01/02 10:22:59;;;;;;;2.92;2.22;;;;;;;;;;10377573;28;20000;-82
2022/01/02 10:28:18;;;;;;;5.88;2.08;;;;;;;;;;10375713;28;20404;-82
2022/01/02 10:33:21;;;;;;;2.75;1.75;;;;;;;;;;10422308;22;20048;-82
2022/01/02 10:38:24;;;;;;;6.20;2.53;;;;;;;;;;10516924;28;20047;-81
2022/01/02 10:43:27;;;;;;;4.43;2.20;;;;;;;;;;10507704;28;20482;-82
2022/01/02 10:48:34;;;;;;;3.97;2.00;;;;;;;;;;10505942;28;20047;-82
2022/01/02 10:53:37;;;;;;;3.88;2.35;;;;;;;;;;10523546;28;20028;-82
2022/01/02 10:58:41;;;;;;;3.53;2.25;;;;;;;;;;10494555;28;20028;-82
2022/01/02 11:03:44;;;;;;;3.72;2.28;;;;;;;;;;10502132;28;20041;-82
2022/01/02 11:08:47;;;;;;;6.20;3.08;;;;;;;;;;10521514;28;20049;-83
2022/01/02 11:13:50;;;;;;;4.10;2.30;;;;;;;;;;10492720;28;20161;-83
2022/01/02 11:18:51;;;;;;;4.47;2.47;;;;;;;;;;10501272;28;20036;-82
2022/01/02 11:24:07;;;;;;;5.20;2.80;;;;;;;;;;10505367;28;20040;-83
2022/01/02 11:29:08;;;;;;;5.95;2.75;;;;;;;;;;10501786;28;20032;-82
2022/01/02 11:34:21;;;;;;;4.15;2.63;;;;;;;;;;10500479;28;20048;-83
2022/01/02 11:39:25;;;;;;;6.28;3.10;;;;;;;;;;10499928;28;20048;-82
2022/01/02 11:44:49;;;;;;;5.95;3.15;;;;;;;;;;10501849;28;20115;-82
2022/01/02 11:49:50;;;;;;;4.78;2.90;;;;;;;;;;10501498;28;20032;-82
2022/01/02 11:54:51;;;;;;;;;;;;;;;;;;10499571;28;20210;-82
2022/01/02 11:59:53;;;;;;;5.22;3.58;;;;;;;;;;10498774;28;19930;-82
2022/01/02 12:10:16;;;;;;;6.15;2.80;;;;;;;;;;10522645;28;20043;-82
2022/01/02 12:15:18;;;;;;;5.47;2.85;;;;;;;;;;10506242;28;20054;-83
2022/01/02 12:20:19;;;;;;;4.18;2.22;;;;;;;;;;10506832;28;20098;-83
2022/01/02 12:25:20;;;;;;;;;;;;;;;;;;10506171;28;20032;-83
2022/01/02 12:30:21;;;;;;;6.07;2.80;;;;;;;;;;10504103;28;19909;-83
2022/01/02 12:35:22;;;;;;;4.72;2.90;;;;;;;;;;10507498;28;20104;-83
2022/01/02 12:40:23;;;;;;;6.22;2.70;;;;;;;;;;10511722;28;20094;-83
2022/01/02 12:45:24;;;;;;;;;;;;;;;;;;10512118;28;20075;-83
2022/01/02 12:50:44;;;;;;;4.35;2.22;;;;;;;;;;10509189;28;19908;-83
2022/01/02 12:55:57;;;;;;;5.93;2.70;;;;;;;;;;10508537;28;20033;-83
2022/01/02 13:01:05;;;;;;;5.57;2.70;;;;;;;;;;10512346;28;20056;-83
2022/01/02 13:06:05;;;;;;;5.00;2.88;;;;;;;;;;10517077;28;20159;-83
2022/01/02 13:11:06;;;;;;;;;;;;;;;;;;10526867;28;20032;-82
2022/01/02 13:16:08;;;;;;;4.47;2.42;;;;;;;;;;10512132;28;19975;-83
2022/01/02 13:21:13;;;;;;;7.53;3.22;;;;;;;;;;10522541;28;20039;-83
2022/01/02 13:26:21;;;;;;;4.90;2.72;;;;;;;;;;10504323;28;20036;-83
2022/01/02 13:31:25;;;;;;;4.57;2.80;;;;;;;;;;10502499;28;20108;-83
2022/01/02 13:36:28;;;;;;;4.38;3.00;;;;;;;;;;10501398;28;20112;-83
2022/01/02 13:41:31;;;;;;;4.22;2.47;;;;;;;;;;10518542;28;20082;-83
2022/01/02 13:46:49;;;;;;;5.63;2.47;;;;;;;;;;10499418;28;20029;-83
2022/01/02 13:52:03;;;;;;;4.63;2.47;;;;;;;;;;10520251;28;20098;-83
2022/01/02 13:57:06;;;;;;;7.53;2.67;;;;;;;;;;10503778;28;20516;-83
2022/01/02 14:02:07;;;;;;;4.80;2.90;;;;;;;;;;10501863;28;20123;-83
2022/01/02 14:07:08;;;;;;;;;;;;;;;;;;10502687;28;20076;-83
2022/01/02 14:12:10;;;;;;;5.45;2.60;;;;;;;;;;10501850;28;20006;-83
2022/01/02 14:22:12;;;;;;;;;;;;;;;;;;10525093;28;20064;-83
2022/01/02 14:27:14;;;;;;;3.95;2.30;;;;;;;;;;10530348;28;19912;-83
2022/01/02 14:32:16;;;;;;;7.20;2.88;;;;;;;;;;10500340;28;20028;-83
2022/01/02 14:37:18;;;;;;;5.53;2.80;;;;;;;;;;10503571;28;20074;-83
2022/01/02 14:42:19;;;;;;;3.90;2.58;;;;;;;;;;10502103;28;20044;-82
2022/01/02 14:47:20;;;;;;;5.38;3.30;;;;;;;;;;10502123;28;20032;-82
2022/01/02 14:52:21;;;;;;;17.75;15.93;;;;;;;;;;10507866;28;20032;-82
2022/01/02 14:57:22;;;;;;;;;;;;;;;;;;10515273;28;20092;-81
2022/01/02 15:02:24;;;;;;;5.55;3.38;;;;;;;;;;10515211;28;19908;-81
2022/01/02 15:07:25;;;;;;;4.68;2.90;;;;;;;;;;10512472;28;20100;-82
2022/01/02 15:12:25;;;;;;;;;;;;;;;;;;10515879;28;20029;-80
2022/01/02 15:17:27;;;;;;;4.03;2.78;;;;;;;;;;10524170;28;19913;-83
2022/01/02 15:22:28;;;;;;;7.25;3.28;;;;;;;;;;10491274;28;20513;-84
2022/01/02 15:27:29;;;;;;;;;;;;;;;;;;10491193;28;20029;-83
2022/01/02 15:32:33;;;;;;;5.22;2.75;;;;;;;;;;10490553;28;20392;-83
2022/01/02 15:37:35;;;;;;;7.03;2.97;;;;;;;;;;10491418;28;20058;-83
2022/01/02 15:42:36;;;;;;;5.45;3.17;;;;;;;;;;10493117;28;20032;-83
2022/01/02 15:47:38;;;;;;;5.50;3.13;;;;;;;;;;10494686;28;20066;-84
2022/01/02 15:52:39;;;;;;;5.95;2.90;;;;;;;;;;10494354;28;20040;-83
2022/01/02 15:57:40;;;;;;;;;;;;;;;;;;10494676;28;20032;-83
2022/01/02 16:02:41;;;;;;;6.90;3.20;;;;;;;;;;10498331;28;19916;-83
2022/01/02 16:07:42;;;;;;;7.32;3.10;;;;;;;;;;10501783;28;20047;-84
2022/01/02 16:12:43;;;;;;;4.18;2.92;;;;;;;;;;10502515;28;20036;-83
2022/01/02 16:17:44;;;;;;;;;;;;;;;;;;10504232;28;20065;-83
2022/01/02 16:22:45;;;;;;;3.85;2.55;;;;;;;;;;10504697;28;20017;-82
2022/01/02 16:27:46;;;;;;;7.90;3.03;;;;;;;;;;10504549;28;20043;-82
2022/01/02 16:32:47;;;;;;;;;;;;;;;;;;10507838;28;20048;-82
2022/01/02 16:37:48;;;;;;;6.07;2.78;;;;;;;;;;10500176;28;19908;-83
2022/01/02 16:42:49;;;;;;;5.63;2.92;;;;;;;;;;10501827;28;20076;-84
2022/01/02 16:47:50;;;;;;;;;;;;;;;;;;10519202;28;20426;-82
2022/01/02 16:52:51;;;;;;;7.20;3.10;;;;;;;;;;10500389;28;19908;-82
2022/01/02 16:57:52;;;;;;;;;;;;;;;;;;10502043;28;20029;-82
2022/01/02 17:02:58;;;;;;;5.63;2.75;;;;;;;;;;10499970;28;19937;-82
2022/01/02 17:07:59;;;;;;;5.28;2.83;;;;;;;;;;10500814;28;20037;-82
2022/01/02 17:13:00;;;;;;;6.15;3.22;;;;;;;;;;10505277;28;20053;-82
2022/01/02 17:18:01;;;;;;;;;;;;;;;;;;10507930;28;20040;-82
2022/01/02 17:23:02;;;;;;;3.58;2.30;;;;;;;;;;10523879;28;19917;-82
2022/01/02 17:28:03;;;;;;;5.63;2.75;;;;;;;;;;10498760;28;20032;-82
2022/01/02 17:33:04;;;;;;;4.80;2.70;;;;;;;;;;10499382;28;20115;-82
2022/01/02 17:38:05;;;;;;;4.95;2.20;;;;;;;;;;10498941;28;20043;-82
2022/01/02 17:43:07;;;;;;;5.10;2.28;;;;;;;;;;10498308;28;20064;-82
2022/01/02 17:48:09;;;;;;;2.90;2.50;;;;;;;;;;10497917;28;20033;-82
2022/01/02 17:53:10;;;;;;;4.43;2.60;;;;;;;;;;10497256;28;20036;-82
2022/01/02 17:58:11;;;;;;;;;;;;;;;;;;10496795;28;20039;-83
2022/01/02 18:03:12;;;;;;;4.35;2.33;;;;;;;;;;10515770;28;19914;-83
2022/01/02 18:08:13;;;;;;;3.28;1.98;;;;;;;;;;10516334;28;20040;-83
2022/01/02 18:13:16;;;;;;;4.15;2.42;;;;;;;;;;10544616;28;20028;-83
2022/01/02 18:18:17;;;;;;;4.05;2.65;;;;;;;;;;10503354;28;20036;-83
2022/01/02 18:23:18;;;;;;;6.32;2.83;;;;;;;;;;10494497;28;20032;-82
2022/01/02 18:28:19;;;;;;;4.20;2.53;;;;;;;;;;10492943;28;20141;-83
2022/01/02 18:33:20;;;;;;;;;;;;;;;;;;10513072;28;20112;-83
2022/01/02 18:38:21;;;;;;;5.93;2.72;;;;;;;;;;10495389;28;20030;-83
2022/01/02 18:43:23;;;;;;;;;;;;;;;;;;10495631;28;20040;-83
2022/01/02 18:48:24;;;;;;;7.43;3.00;;;;;;;;;;10495125;28;19908;-83
2022/01/02 18:53:25;;;;;;;;;;;;;;;;;;10495267;28;20028;-83
2022/01/02 18:58:26;;;;;;;4.32;2.40;;;;;;;;;;10512628;28;19963;-83
2022/01/02 19:03:28;;;;;;;5.45;2.42;;;;;;;;;;10494166;28;20036;-83
2022/01/02 19:08:30;;;;;;;4.63;2.50;;;;;;;;;;10494645;28;20043;-83
2022/01/02 19:13:30;;;;;;;;;;;;;;;;;;10494804;28;20035;-82
2022/01/02 19:18:31;;;;;;;7.50;3.28;;;;;;;;;;10489009;28;19908;-82
2022/01/02 19:23:32;;;;;;;;;;;;;;;;;;10494407;28;20032;-82
2022/01/02 19:28:33;;;;;;;4.07;2.50;;;;;;;;;;10516781;28;19916;-83
2022/01/02 19:33:34;;;;;;;3.40;2.33;;;;;;;;;;10494179;28;20044;-83
2022/01/02 19:38:35;;;;;;;;;;;;;;;;;;10500270;28;20087;-83
2022/01/02 19:43:36;;;;;;;3.88;2.22;;;;;;;;;;10520116;28;19976;-83
2022/01/02 19:48:37;;;;;;;;;;;;;;;;;;10503266;28;20134;-83
2022/01/02 19:53:38;;;;;;;3.00;2.17;;;;;;;;;;10502395;28;19905;-83
2022/01/02 19:58:39;;;;;;;3.22;2.10;;;;;;;;;;10501427;28;20032;-83
2022/01/02 20:03:40;;;;;;;4.78;2.63;;;;;;;;;;10500687;28;20406;-83
2022/01/02 20:08:42;;;;;;;4.68;2.40;;;;;;;;;;10518234;28;20036;-83
2022/01/02 20:13:43;;;;;;;4.32;2.30;;;;;;;;;;10518895;28;20032;-83
2022/01/02 20:18:44;;;;;;;3.20;2.03;;;;;;;;;;10499413;28;20033;-82
2022/01/02 20:23:45;;;;;;;3.95;2.08;;;;;;;;;;10499569;28;20036;-82
2022/01/02 20:28:47;;;;;;;2.90;1.58;;;;;;;;;;10499322;28;20040;-84
2022/01/02 20:33:51;;;;;;;3.15;1.38;;;;;;;;;;10498473;28;20486;-84
2022/01/02 20:38:52;;;;;;;3.13;1.50;;;;;;;;;;10501973;28;20532;-84
2022/01/02 20:43:53;;;;;;;;;;;;;;;;;;10510632;28;20040;-84
2022/01/02 20:48:54;;;;;;;2.30;1.50;;;;;;;;;;10518398;28;19908;-84
2022/01/02 20:53:56;;;;;;;;;;;;;;;;;;10501190;28;20032;-84
2022/01/02 20:58:57;;;;;;;2.60;1.30;;;;;;;;;;10517610;28;19904;-84
2022/01/02 21:03:58;;;;;;;1.52;1.05;;;;;;;;;;10499657;28;20067;-82
2022/01/02 21:08:59;;;;;;;;;;;;;;;;;;10499066;28;20041;-82
